sensor_id;sensor_type;location;lat;lon;timestamp;pressure;altitude;pressure_sealevel;temperature;humidity
67738;BME280;54534;43.612;1.572;2023-03-26T00:01:27;98859.19;;;17.39;48.32
67738;BME280;54534;43.612;1.572;2023-03-26T00:03:54;98861.00;;;17.39;48.57
67738;BME280;54534;43.612;1.572;2023-03-26T00:06:23;98855.69;;;17.39;48.14
67738;BME280;54534;43.612;1.572;2023-03-26T00:08:49;98858.34;;;17.39;48.58
67738;BME280;54534;43.612;1.572;2023-03-26T00:11:16;98854.84;;;17.38;48.11
67738;BME280;54534;43.612;1.572;2023-03-26T00:13:43;98860.16;;;17.38;48.21
67738;BME280;54534;43.612;1.572;2023-03-26T00:16:14;98861.84;;;17.39;48.20
67738;BME280;54534;43.612;1.572;2023-03-26T00:18:40;98848.69;;;17.38;48.14
67738;BME280;54534;43.612;1.572;2023-03-26T00:21:07;98862.84;;;17.38;48.42
67738;BME280;54534;43.612;1.572;2023-03-26T00:23:33;98850.50;;;17.37;48.50
67738;BME280;54534;43.612;1.572;2023-03-26T00:26:00;98844.22;;;17.38;48.02
67738;BME280;54534;43.612;1.572;2023-03-26T00:28:28;98846.88;;;17.38;48.31
67738;BME280;54534;43.612;1.572;2023-03-26T00:31:04;98849.53;;;17.38;48.48
67738;BME280;54534;43.612;1.572;2023-03-26T00:33:30;98848.69;;;17.38;48.46
67738;BME280;54534;43.612;1.572;2023-03-26T00:35:57;98854.00;;;17.38;48.58
67738;BME280;54534;43.612;1.572;2023-03-26T00:38:26;98851.34;;;17.38;48.57
67738;BME280;54534;43.612;1.572;2023-03-26T00:40:52;98847.84;;;17.37;48.48
67738;BME280;54534;43.612;1.572;2023-03-26T00:43:19;98856.66;;;17.38;48.42
67738;BME280;54534;43.612;1.572;2023-03-26T00:45:50;98856.78;;;17.36;48.48
67738;BME280;54534;43.612;1.572;2023-03-26T00:48:16;98859.31;;;17.38;48.42
67738;BME280;54534;43.612;1.572;2023-03-26T00:50:44;98850.63;;;17.36;48.22
67738;BME280;54534;43.612;1.572;2023-03-26T00:53:11;98858.47;;;17.37;48.23
67738;BME280;54534;43.612;1.572;2023-03-26T00:55:44;98854.25;;;17.34;48.07
67738;BME280;54534;43.612;1.572;2023-03-26T00:58:11;98847.00;;;17.37;48.38
67738;BME280;54534;43.612;1.572;2023-03-26T01:00:42;98839.16;;;17.35;48.39
67738;BME280;54534;43.612;1.572;2023-03-26T01:03:11;98847.00;;;17.37;48.34
67738;BME280;54534;43.612;1.572;2023-03-26T01:05:51;98840.81;;;17.36;48.56
67738;BME280;54534;43.612;1.572;2023-03-26T01:10:43;98849.66;;;17.37;48.19
67738;BME280;54534;43.612;1.572;2023-03-26T01:13:18;98848.81;;;17.36;48.00
67738;BME280;54534;43.612;1.572;2023-03-26T01:15:45;98840.00;;;17.36;48.34
67738;BME280;54534;43.612;1.572;2023-03-26T01:18:14;98840.00;;;17.36;48.15
67738;BME280;54534;43.612;1.572;2023-03-26T01:20:41;98844.47;;;17.35;48.37
67738;BME280;54534;43.612;1.572;2023-03-26T01:23:12;98841.81;;;17.35;48.23
67738;BME280;54534;43.612;1.572;2023-03-26T01:25:44;98837.34;;;17.36;48.48
67738;BME280;54534;43.612;1.572;2023-03-26T01:28:14;98827.69;;;17.34;48.08
67738;BME280;54534;43.612;1.572;2023-03-26T01:31:06;98824.88;;;17.36;48.15
67738;BME280;54534;43.612;1.572;2023-03-26T01:39:35;98834.78;;;17.34;48.45
67738;BME280;54534;43.612;1.572;2023-03-26T01:42:14;98828.63;;;17.33;48.43
67738;BME280;54534;43.612;1.572;2023-03-26T01:44:53;98830.34;;;17.34;48.40
67738;BME280;54534;43.612;1.572;2023-03-26T01:47:21;98827.81;;;17.33;48.43
67738;BME280;54534;43.612;1.572;2023-03-26T01:49:46;98825.16;;;17.33;48.18
67738;BME280;54534;43.612;1.572;2023-03-26T01:52:21;98826.81;;;17.34;48.36
67738;BME280;54534;43.612;1.572;2023-03-26T01:54:49;98821.50;;;17.34;48.20
67738;BME280;54534;43.612;1.572;2023-03-26T01:57:52;98813.53;;;17.34;48.14
67738;BME280;54534;43.612;1.572;2023-03-26T02:00:38;98810.03;;;17.33;48.45
67738;BME280;54534;43.612;1.572;2023-03-26T02:03:30;98804.72;;;17.33;48.29
67738;BME280;54534;43.612;1.572;2023-03-26T02:05:57;98806.81;;;17.30;48.10
67738;BME280;54534;43.612;1.572;2023-03-26T02:08:30;98815.47;;;17.32;48.29
67738;BME280;54534;43.612;1.572;2023-03-26T02:11:09;98833.22;;;17.31;48.35
67738;BME280;54534;43.612;1.572;2023-03-26T02:13:37;98828.78;;;17.32;48.49
67738;BME280;54534;43.612;1.572;2023-03-26T02:16:05;98823.47;;;17.32;48.40
67738;BME280;54534;43.612;1.572;2023-03-26T02:18:31;98816.44;;;17.31;48.18
67738;BME280;54534;43.612;1.572;2023-03-26T02:21:11;98840.25;;;17.32;48.44
67738;BME280;54534;43.612;1.572;2023-03-26T02:23:42;98865.97;;;17.32;48.11
67738;BME280;54534;43.612;1.572;2023-03-26T02:26:12;98849.19;;;17.31;48.40
67738;BME280;54534;43.612;1.572;2023-03-26T02:28:38;98881.91;;;17.32;48.17
67738;BME280;54534;43.612;1.572;2023-03-26T02:31:04;98879.97;;;17.34;48.23
67738;BME280;54534;43.612;1.572;2023-03-26T02:33:30;98879.25;;;17.32;48.23
67738;BME280;54534;43.612;1.572;2023-03-26T02:35:57;98888.94;;;17.33;48.17
67738;BME280;54534;43.612;1.572;2023-03-26T02:38:26;98872.13;;;17.32;48.59
67738;BME280;54534;43.612;1.572;2023-03-26T02:40:55;98881.78;;;17.33;48.35
67738;BME280;54534;43.612;1.572;2023-03-26T02:43:21;98878.31;;;17.33;48.44
67738;BME280;54534;43.612;1.572;2023-03-26T02:45:47;98892.41;;;17.33;48.16
67738;BME280;54534;43.612;1.572;2023-03-26T02:48:12;98894.25;;;17.33;48.39
67738;BME280;54534;43.612;1.572;2023-03-26T02:50:39;98900.38;;;17.33;48.15
67738;BME280;54534;43.612;1.572;2023-03-26T02:53:05;98895.06;;;17.33;48.50
67738;BME280;54534;43.612;1.572;2023-03-26T02:55:30;98891.59;;;17.33;48.12
67738;BME280;54534;43.612;1.572;2023-03-26T02:57:55;98899.56;;;17.33;48.45
67738;BME280;54534;43.612;1.572;2023-03-26T03:00:21;98899.56;;;17.33;48.18
67738;BME280;54534;43.612;1.572;2023-03-26T03:02:48;98900.38;;;17.33;48.45
67738;BME280;54534;43.612;1.572;2023-03-26T03:05:14;98909.34;;;17.32;48.29
67738;BME280;54534;43.612;1.572;2023-03-26T03:07:39;98904.88;;;17.33;48.27
67738;BME280;54534;43.612;1.572;2023-03-26T03:10:06;98902.22;;;17.33;48.22
67738;BME280;54534;43.612;1.572;2023-03-26T03:12:33;98900.38;;;17.33;48.18
67738;BME280;54534;43.612;1.572;2023-03-26T03:14:59;98906.69;;;17.32;48.39
67738;BME280;54534;43.612;1.572;2023-03-26T03:17:24;98902.22;;;17.33;48.22
67738;BME280;54534;43.612;1.572;2023-03-26T03:19:49;98892.53;;;17.32;48.21
67738;BME280;54534;43.612;1.572;2023-03-26T03:22:15;98893.41;;;17.32;48.40
67738;BME280;54534;43.612;1.572;2023-03-26T03:24:40;98896.06;;;17.32;48.50
67738;BME280;54534;43.612;1.572;2023-03-26T03:27:08;98896.91;;;17.33;48.02
67738;BME280;54534;43.612;1.572;2023-03-26T03:29:33;98889.75;;;17.33;48.31
67738;BME280;54534;43.612;1.572;2023-03-26T03:31:59;98892.53;;;17.32;48.39
67738;BME280;54534;43.612;1.572;2023-03-26T03:34:25;98909.34;;;17.32;48.11
67738;BME280;54534;43.612;1.572;2023-03-26T03:36:50;98922.63;;;17.32;48.44
67738;BME280;54534;43.612;1.572;2023-03-26T03:39:16;98927.94;;;17.32;48.33
67738;BME280;54534;43.612;1.572;2023-03-26T03:41:41;98930.59;;;17.32;48.28
67738;BME280;54534;43.612;1.572;2023-03-26T03:44:07;98929.75;;;17.32;48.34
67738;BME280;54534;43.612;1.572;2023-03-26T03:46:32;98930.59;;;17.32;48.11
67738;BME280;54534;43.612;1.572;2023-03-26T03:48:58;98929.75;;;17.32;48.06
67738;BME280;54534;43.612;1.572;2023-03-26T03:51:23;98941.22;;;17.32;48.16
67738;BME280;54534;43.612;1.572;2023-03-26T03:53:49;98953.66;;;17.32;48.06
67738;BME280;54534;43.612;1.572;2023-03-26T03:56:15;98965.25;;;17.31;48.15
67738;BME280;54534;43.612;1.572;2023-03-26T03:58:43;98973.97;;;17.33;48.20
67738;BME280;54534;43.612;1.572;2023-03-26T04:01:10;98981.19;;;17.31;48.46
67738;BME280;54534;43.612;1.572;2023-03-26T04:03:38;98978.53;;;17.31;48.23
67738;BME280;54534;43.612;1.572;2023-03-26T04:06:04;98987.34;;;17.31;48.16
67738;BME280;54534;43.612;1.572;2023-03-26T04:08:31;98977.59;;;17.32;48.30
67738;BME280;54534;43.612;1.572;2023-03-26T04:10:57;98979.38;;;17.31;48.34
67738;BME280;54534;43.612;1.572;2023-03-26T04:13:22;98982.91;;;17.32;48.15
67738;BME280;54534;43.612;1.572;2023-03-26T04:15:48;98991.00;;;17.30;48.21
67738;BME280;54534;43.612;1.572;2023-03-26T04:18:14;98993.53;;;17.32;48.39
67738;BME280;54534;43.612;1.572;2023-03-26T04:20:41;98999.78;;;17.31;48.34
67738;BME280;54534;43.612;1.572;2023-03-26T04:23:12;99011.28;;;17.31;48.18
67738;BME280;54534;43.612;1.572;2023-03-26T04:25:39;99003.31;;;17.31;48.33
67738;BME280;54534;43.612;1.572;2023-03-26T04:28:06;99006.94;;;17.30;48.32
67738;BME280;54534;43.612;1.572;2023-03-26T04:30:33;98992.66;;;17.31;48.42
67738;BME280;54534;43.612;1.572;2023-03-26T04:33:02;99003.31;;;17.31;48.31
67738;BME280;54534;43.612;1.572;2023-03-26T04:35:33;99003.31;;;17.31;48.26
67738;BME280;54534;43.612;1.572;2023-03-26T04:38:00;99004.16;;;17.32;47.92
67738;BME280;54534;43.612;1.572;2023-03-26T04:40:31;99009.47;;;17.32;47.99
67738;BME280;54534;43.612;1.572;2023-03-26T04:43:00;99010.31;;;17.32;47.98
67738;BME280;54534;43.612;1.572;2023-03-26T04:45:27;99014.78;;;17.32;48.09
67738;BME280;54534;43.612;1.572;2023-03-26T04:47:55;99022.75;;;17.32;48.01
67738;BME280;54534;43.612;1.572;2023-03-26T04:50:22;99015.63;;;17.32;48.13
67738;BME280;54534;43.612;1.572;2023-03-26T04:52:48;99016.59;;;17.31;48.41
67738;BME280;54534;43.612;1.572;2023-03-26T04:55:33;99018.41;;;17.31;48.21
67738;BME280;54534;43.612;1.572;2023-03-26T04:58:01;99027.34;;;17.30;48.42
67738;BME280;54534;43.612;1.572;2023-03-26T05:00:30;99021.19;;;17.29;48.11
67738;BME280;54534;43.612;1.572;2023-03-26T05:02:56;99023.72;;;17.31;48.45
67738;BME280;54534;43.612;1.572;2023-03-26T05:05:24;99017.69;;;17.29;48.21
67738;BME280;54534;43.612;1.572;2023-03-26T05:07:51;99024.69;;;17.30;48.32
67738;BME280;54534;43.612;1.572;2023-03-26T05:10:17;99022.03;;;17.30;48.45
67738;BME280;54534;43.612;1.572;2023-03-26T05:12:44;99026.38;;;17.31;48.57
67738;BME280;54534;43.612;1.572;2023-03-26T05:15:11;99021.06;;;17.31;47.93
67738;BME280;54534;43.612;1.572;2023-03-26T05:17:37;99015.88;;;17.29;48.05
67738;BME280;54534;43.612;1.572;2023-03-26T05:20:21;99010.41;;;17.31;48.25
67738;BME280;54534;43.612;1.572;2023-03-26T05:22:48;99024.69;;;17.30;48.03
67738;BME280;54534;43.612;1.572;2023-03-26T05:25:15;99032.66;;;17.30;48.31
67738;BME280;54534;43.612;1.572;2023-03-26T05:27:41;99036.19;;;17.30;48.11
67738;BME280;54534;43.612;1.572;2023-03-26T05:30:07;99037.97;;;17.30;48.45
67738;BME280;54534;43.612;1.572;2023-03-26T05:32:34;99039.66;;;17.31;48.15
67738;BME280;54534;43.612;1.572;2023-03-26T05:35:00;99037.97;;;17.30;48.46
67738;BME280;54534;43.612;1.572;2023-03-26T05:37:27;99037.00;;;17.31;48.02
67738;BME280;54534;43.612;1.572;2023-03-26T05:39:55;99043.28;;;17.30;48.17
67738;BME280;54534;43.612;1.572;2023-03-26T05:42:21;99048.47;;;17.31;48.46
67738;BME280;54534;43.612;1.572;2023-03-26T05:44:47;99058.25;;;17.31;48.33
67738;BME280;54534;43.612;1.572;2023-03-26T05:47:12;99059.09;;;17.31;48.00
67738;BME280;54534;43.612;1.572;2023-03-26T05:49:38;99065.41;;;17.30;48.38
67738;BME280;54534;43.612;1.572;2023-03-26T05:52:03;99075.91;;;17.32;48.10
67738;BME280;54534;43.612;1.572;2023-03-26T05:54:29;99077.59;;;17.33;48.14
67738;BME280;54534;43.612;1.572;2023-03-26T05:56:55;99075.91;;;17.32;48.00
67738;BME280;54534;43.612;1.572;2023-03-26T05:59:21;99070.59;;;17.32;47.92
67738;BME280;54534;43.612;1.572;2023-03-26T06:01:47;99078.56;;;17.32;48.06
67738;BME280;54534;43.612;1.572;2023-03-26T06:04:13;99068.06;;;17.30;48.07
67738;BME280;54534;43.612;1.572;2023-03-26T06:06:41;99074.19;;;17.31;48.21
67738;BME280;54534;43.612;1.572;2023-03-26T06:09:07;99075.06;;;17.31;48.18
67738;BME280;54534;43.612;1.572;2023-03-26T06:11:32;99078.56;;;17.32;48.04
67738;BME280;54534;43.612;1.572;2023-03-26T06:13:58;99075.06;;;17.31;47.88
67738;BME280;54534;43.612;1.572;2023-03-26T06:16:25;99078.56;;;17.32;48.04
67738;BME280;54534;43.612;1.572;2023-03-26T06:18:50;99069.72;;;17.31;47.95
67738;BME280;54534;43.612;1.572;2023-03-26T06:21:17;99073.25;;;17.32;47.91
67738;BME280;54534;43.612;1.572;2023-03-26T06:23:42;99083.03;;;17.31;48.05
67738;BME280;54534;43.612;1.572;2023-03-26T06:26:08;99087.50;;;17.31;48.17
67738;BME280;54534;43.612;1.572;2023-03-26T06:28:33;99091.84;;;17.32;47.95
67738;BME280;54534;43.612;1.572;2023-03-26T06:31:01;99103.44;;;17.31;48.11
67738;BME280;54534;43.612;1.572;2023-03-26T06:33:26;99114.19;;;17.29;48.15
67738;BME280;54534;43.612;1.572;2023-03-26T06:35:52;99115.03;;;17.30;48.18
67738;BME280;54534;43.612;1.572;2023-03-26T06:38:17;99122.03;;;17.31;47.82
67738;BME280;54534;43.612;1.572;2023-03-26T06:40:43;99127.34;;;17.31;48.12
67738;BME280;54534;43.612;1.572;2023-03-26T06:43:08;99118.56;;;17.30;47.97
67738;BME280;54534;43.612;1.572;2023-03-26T06:45:34;99117.69;;;17.30;48.03
67738;BME280;54534;43.612;1.572;2023-03-26T06:47:59;99118.56;;;17.30;47.97
67738;BME280;54534;43.612;1.572;2023-03-26T06:50:26;99111.53;;;17.29;48.24
67738;BME280;54534;43.612;1.572;2023-03-26T06:52:55;99112.47;;;17.28;47.87
67738;BME280;54534;43.612;1.572;2023-03-26T06:55:21;99117.69;;;17.30;48.00
67738;BME280;54534;43.612;1.572;2023-03-26T06:57:50;99117.69;;;17.30;47.97
67738;BME280;54534;43.612;1.572;2023-03-26T07:00:17;99116.00;;;17.29;48.17
67738;BME280;54534;43.612;1.572;2023-03-26T07:02:42;99115.03;;;17.30;47.83
67738;BME280;54534;43.612;1.572;2023-03-26T07:05:08;99116.84;;;17.29;47.90
67738;BME280;54534;43.612;1.572;2023-03-26T07:07:33;99107.06;;;17.30;48.02
67738;BME280;54534;43.612;1.572;2023-03-26T07:09:59;99095.72;;;17.28;47.83
67738;BME280;54534;43.612;1.572;2023-03-26T07:12:25;99103.69;;;17.28;48.04
67738;BME280;54534;43.612;1.572;2023-03-26T07:14:51;99106.22;;;17.29;48.15
67738;BME280;54534;43.612;1.572;2023-03-26T07:17:17;99111.53;;;17.29;48.01
67738;BME280;54534;43.612;1.572;2023-03-26T07:19:42;99122.16;;;17.29;48.15
67738;BME280;54534;43.612;1.572;2023-03-26T07:22:28;99111.53;;;17.29;48.02
67738;BME280;54534;43.612;1.572;2023-03-26T07:24:54;99111.66;;;17.28;48.18
67738;BME280;54534;43.612;1.572;2023-03-26T07:27:35;99122.28;;;17.28;48.02
67738;BME280;54534;43.612;1.572;2023-03-26T07:30:18;99120.59;;;17.27;47.83
67738;BME280;54534;43.612;1.572;2023-03-26T07:35:42;99109.97;;;17.27;48.14
67738;BME280;54534;43.612;1.572;2023-03-26T07:38:51;99106.44;;;17.26;47.96
67738;BME280;54534;43.612;1.572;2023-03-26T07:41:31;99099.47;;;17.25;48.05
67738;BME280;54534;43.612;1.572;2023-03-26T07:44:21;99094.97;;;17.26;47.87
67738;BME280;54534;43.612;1.572;2023-03-26T07:46:49;99099.47;;;17.25;47.91
67738;BME280;54534;43.612;1.572;2023-03-26T07:49:17;99102.94;;;17.26;48.03
67738;BME280;54534;43.612;1.572;2023-03-26T07:51:45;99117.22;;;17.25;47.91
67738;BME280;54534;43.612;1.572;2023-03-26T07:54:11;99110.91;;;17.26;48.22
67738;BME280;54534;43.612;1.572;2023-03-26T07:56:37;99109.22;;;17.25;48.04
67738;BME280;54534;43.612;1.572;2023-03-26T07:59:14;99126.84;;;17.26;48.02
67738;BME280;54534;43.612;1.572;2023-03-26T08:10:17;99101.38;;;17.23;48.25
67738;BME280;54534;43.612;1.572;2023-03-26T08:13:18;99116.44;;;17.22;47.91
67738;BME280;54534;43.612;1.572;2023-03-26T08:15:52;99126.25;;;17.22;47.91
67738;BME280;54534;43.612;1.572;2023-03-26T08:21:18;99116.44;;;17.22;47.95
67738;BME280;54534;43.612;1.572;2023-03-26T08:24:06;99120.94;;;17.22;48.07
67738;BME280;54534;43.612;1.572;2023-03-26T08:31:51;99128.91;;;17.22;47.83
67738;BME280;54534;43.612;1.572;2023-03-26T08:34:17;99137.72;;;17.22;48.02
67738;BME280;54534;43.612;1.572;2023-03-26T08:36:42;99146.53;;;17.23;47.96
67738;BME280;54534;43.612;1.572;2023-03-26T08:39:08;99141.34;;;17.21;47.99
67738;BME280;54534;43.612;1.572;2023-03-26T08:58:20;99147.75;;;17.19;48.08
67738;BME280;54534;43.612;1.572;2023-03-26T09:20:57;99171.75;;;17.17;48.04
67738;BME280;54534;43.612;1.572;2023-03-26T09:31:53;99173.59;;;17.17;48.04
67738;BME280;54534;43.612;1.572;2023-03-26T09:40:23;99168.34;;;17.15;47.96
67738;BME280;54534;43.612;1.572;2023-03-26T09:42:48;99172.78;;;17.15;47.79
67738;BME280;54534;43.612;1.572;2023-03-26T09:45:49;99184.28;;;17.15;47.66
67738;BME280;54534;43.612;1.572;2023-03-26T09:57:25;99174.63;;;17.14;47.79
67738;BME280;54534;43.612;1.572;2023-03-26T10:07:47;99178.25;;;17.13;47.92
67738;BME280;54534;43.612;1.572;2023-03-26T10:15:59;99178.25;;;17.13;47.98
67738;BME280;54534;43.612;1.572;2023-03-26T10:21:41;99170.41;;;17.11;47.65
67738;BME280;54534;43.612;1.572;2023-03-26T10:40:22;99148.38;;;17.09;47.94
67738;BME280;54534;43.612;1.572;2023-03-26T10:48:29;99140.31;;;17.11;47.95
67738;BME280;54534;43.612;1.572;2023-03-26T10:56:48;99139.59;;;17.09;47.89
67738;BME280;54534;43.612;1.572;2023-03-26T10:59:15;99141.28;;;17.10;47.73
67738;BME280;54534;43.612;1.572;2023-03-26T11:02:00;99135.94;;;17.10;47.96
67738;BME280;54534;43.612;1.572;2023-03-26T11:07:22;99130.78;;;17.08;47.74
67738;BME280;54534;43.612;1.572;2023-03-26T11:10:17;99128.00;;;17.10;47.94
67738;BME280;54534;43.612;1.572;2023-03-26T11:15:28;99120.16;;;17.08;47.79
67738;BME280;54534;43.612;1.572;2023-03-26T11:18:15;99119.28;;;17.08;47.81
67738;BME280;54534;43.612;1.572;2023-03-26T11:21:00;99114.84;;;17.08;47.88
67738;BME280;54534;43.612;1.572;2023-03-26T11:26:17;99100.56;;;17.09;47.73
67738;BME280;54534;43.612;1.572;2023-03-26T11:34:03;99089.22;;;17.07;48.05
67738;BME280;54534;43.612;1.572;2023-03-26T11:36:37;99080.28;;;17.08;48.05
67738;BME280;54534;43.612;1.572;2023-03-26T11:39:10;99097.19;;;17.07;47.93
67738;BME280;54534;43.612;1.572;2023-03-26T11:41:38;99087.41;;;17.08;47.82
67738;BME280;54534;43.612;1.572;2023-03-26T11:44:25;99082.94;;;17.08;47.80
67738;BME280;54534;43.612;1.572;2023-03-26T11:46:56;99086.47;;;17.09;47.95
67738;BME280;54534;43.612;1.572;2023-03-26T11:49:25;99090.94;;;17.08;47.74
67738;BME280;54534;43.612;1.572;2023-03-26T11:51:53;99087.41;;;17.08;47.52
67738;BME280;54534;43.612;1.572;2023-03-26T11:54:19;99083.91;;;17.07;47.85
67738;BME280;54534;43.612;1.572;2023-03-26T11:56:50;99076.78;;;17.08;47.64
67738;BME280;54534;43.612;1.572;2023-03-26T11:59:50;99074.13;;;17.08;47.85
67738;BME280;54534;43.612;1.572;2023-03-26T12:02:28;99068.81;;;17.08;47.65
67738;BME280;54534;43.612;1.572;2023-03-26T12:07:43;99053.72;;;17.08;47.78
67738;BME280;54534;43.612;1.572;2023-03-26T12:10:22;99050.22;;;17.08;47.59
67738;BME280;54534;43.612;1.572;2023-03-26T12:12:52;99037.91;;;17.07;47.96
67738;BME280;54534;43.612;1.572;2023-03-26T12:15:19;99041.31;;;17.09;47.77
67738;BME280;54534;43.612;1.572;2023-03-26T12:17:48;99034.28;;;17.08;47.79
67738;BME280;54534;43.612;1.572;2023-03-26T12:22:53;99030.69;;;17.09;47.69
67738;BME280;54534;43.612;1.572;2023-03-26T12:28:17;99022.72;;;17.09;47.86
67738;BME280;54534;43.612;1.572;2023-03-26T12:30:51;99006.78;;;17.09;47.84
67738;BME280;54534;43.612;1.572;2023-03-26T12:33:32;98997.94;;;17.08;48.10
67738;BME280;54534;43.612;1.572;2023-03-26T12:35:59;99002.28;;;17.09;47.81
67738;BME280;54534;43.612;1.572;2023-03-26T12:38:40;99003.25;;;17.08;47.77
67738;BME280;54534;43.612;1.572;2023-03-26T12:41:11;98995.16;;;17.10;47.57
67738;BME280;54534;43.612;1.572;2023-03-26T12:46:19;98988.19;;;17.09;47.66
67738;BME280;54534;43.612;1.572;2023-03-26T12:48:46;98982.00;;;17.08;47.73
67738;BME280;54534;43.612;1.572;2023-03-26T13:12:39;98969.69;;;17.07;47.82
67738;BME280;54534;43.612;1.572;2023-03-26T13:15:14;98951.94;;;17.08;47.63
67738;BME280;54534;43.612;1.572;2023-03-26T13:34:33;98966.19;;;17.07;47.50
67738;BME280;54534;43.612;1.572;2023-03-26T13:37:18;98979.34;;;17.08;47.41
67738;BME280;54534;43.612;1.572;2023-03-26T13:40:15;98981.16;;;17.08;47.45
67738;BME280;54534;43.612;1.572;2023-03-26T13:42:46;98990.94;;;17.07;47.58
67738;BME280;54534;43.612;1.572;2023-03-26T13:45:27;98974.03;;;17.08;47.52
67738;BME280;54534;43.612;1.572;2023-03-26T13:47:58;98984.66;;;17.08;47.68
67738;BME280;54534;43.612;1.572;2023-03-26T13:50:31;98979.34;;;17.08;47.58
67738;BME280;54534;43.612;1.572;2023-03-26T13:53:02;98978.50;;;17.08;47.26
67738;BME280;54534;43.612;1.572;2023-03-26T13:55:33;98981.16;;;17.08;47.42
67738;BME280;54534;43.612;1.572;2023-03-26T14:01:05;98983.69;;;17.09;47.17
67738;BME280;54534;43.612;1.572;2023-03-26T14:09:07;99052.03;;;17.07;47.41
67738;BME280;54534;43.612;1.572;2023-03-26T14:14:32;99019.19;;;17.08;47.40
67738;BME280;54534;43.612;1.572;2023-03-26T14:17:18;99006.03;;;17.07;47.52
67738;BME280;54534;43.612;1.572;2023-03-26T14:25:09;98978.50;;;17.08;47.19
67738;BME280;54534;43.612;1.572;2023-03-26T14:28:01;98982.97;;;17.07;47.33
67738;BME280;54534;43.612;1.572;2023-03-26T14:33:57;98981.28;;;17.06;47.58
67738;BME280;54534;43.612;1.572;2023-03-26T14:44:40;98956.41;;;17.07;47.08
67738;BME280;54534;43.612;1.572;2023-03-26T14:47:20;98968.84;;;17.07;47.27
67738;BME280;54534;43.612;1.572;2023-03-26T14:50:15;98959.06;;;17.07;47.19
67738;BME280;54534;43.612;1.572;2023-03-26T14:52:50;98951.22;;;17.06;47.39
67738;BME280;54534;43.612;1.572;2023-03-26T15:04:36;98952.19;;;17.05;47.59
67738;BME280;54534;43.612;1.572;2023-03-26T15:10:13;98947.72;;;17.05;47.42
67738;BME280;54534;43.612;1.572;2023-03-26T15:13:06;98943.25;;;17.06;47.24
67738;BME280;54534;43.612;1.572;2023-03-26T15:15:52;98925.63;;;17.05;47.27
67738;BME280;54534;43.612;1.572;2023-03-26T15:43:28;98914.13;;;17.04;47.45
67738;BME280;54534;43.612;1.572;2023-03-26T15:46:53;98901.72;;;17.05;47.46
67738;BME280;54534;43.612;1.572;2023-03-26T16:00:23;98916.78;;;17.04;47.47
67738;BME280;54534;43.612;1.572;2023-03-26T16:03:41;98921.16;;;17.05;47.16
67738;BME280;54534;43.612;1.572;2023-03-26T16:08:47;98893.75;;;17.05;47.54
67738;BME280;54534;43.612;1.572;2023-03-26T16:16:59;98877.81;;;17.05;47.36
67738;BME280;54534;43.612;1.572;2023-03-26T16:19:35;98888.44;;;17.05;47.58
67738;BME280;54534;43.612;1.572;2023-03-26T16:22:52;98891.09;;;17.05;47.15
67738;BME280;54534;43.612;1.572;2023-03-26T16:25:51;98870.06;;;17.01;47.41
67738;BME280;54534;43.612;1.572;2023-03-26T16:28:31;98885.78;;;17.05;47.27
67738;BME280;54534;43.612;1.572;2023-03-26T16:36:42;98878.78;;;17.04;47.50
67738;BME280;54534;43.612;1.572;2023-03-26T16:49:45;98863.56;;;17.06;47.16
67738;BME280;54534;43.612;1.572;2023-03-26T17:00:46;98921.53;;;17.00;47.45
67738;BME280;54534;43.612;1.572;2023-03-26T17:03:16;98913.31;;;17.04;47.15
67738;BME280;54534;43.612;1.572;2023-03-26T17:05:55;98907.03;;;17.05;47.07
67738;BME280;54534;43.612;1.572;2023-03-26T17:09:23;98900.03;;;17.04;47.27
67738;BME280;54534;43.612;1.572;2023-03-26T17:11:50;98902.69;;;17.04;47.10
67738;BME280;54534;43.612;1.572;2023-03-26T17:16:47;98894.72;;;17.04;47.12
67738;BME280;54534;43.612;1.572;2023-03-26T17:19:28;98879.59;;;17.04;47.16
67738;BME280;54534;43.612;1.572;2023-03-26T17:22:10;98900.03;;;17.04;47.13
67738;BME280;54534;43.612;1.572;2023-03-26T17:25:01;98902.69;;;17.04;46.90
67738;BME280;54534;43.612;1.572;2023-03-26T17:35:45;98877.09;;;17.03;46.98
67738;BME280;54534;43.612;1.572;2023-03-26T17:40:44;98867.19;;;17.05;47.24
67738;BME280;54534;43.612;1.572;2023-03-26T17:43:13;98882.25;;;17.04;47.02
67738;BME280;54534;43.612;1.572;2023-03-26T17:45:56;98876.13;;;17.04;46.95
67738;BME280;54534;43.612;1.572;2023-03-26T17:48:22;98879.59;;;17.04;47.27
67738;BME280;54534;43.612;1.572;2023-03-26T17:50:56;98875.16;;;17.05;47.25
67738;BME280;54534;43.612;1.572;2023-03-26T17:53:27;98897.38;;;17.04;47.30
67738;BME280;54534;43.612;1.572;2023-03-26T17:55:54;98880.47;;;17.05;47.32
67738;BME280;54534;43.612;1.572;2023-03-26T17:58:29;98885.78;;;17.05;47.38
67738;BME280;54534;43.612;1.572;2023-03-26T18:03:47;98896.41;;;17.05;47.22
67738;BME280;54534;43.612;1.572;2023-03-26T18:11:40;98909.69;;;17.05;47.37
67738;BME280;54534;43.612;1.572;2023-03-26T18:16:52;98919.44;;;17.04;47.13
67738;BME280;54534;43.612;1.572;2023-03-26T18:19:20;98915.13;;;17.03;47.14
67738;BME280;54534;43.612;1.572;2023-03-26T18:22:11;98907.03;;;17.05;47.19
67738;BME280;54534;43.612;1.572;2023-03-26T18:24:43;98899.91;;;17.05;46.89
67738;BME280;54534;43.612;1.572;2023-03-26T18:27:14;98923.81;;;17.05;47.17
67738;BME280;54534;43.612;1.572;2023-03-26T18:29:45;98920.31;;;17.05;47.13
67738;BME280;54534;43.612;1.572;2023-03-26T18:32:23;98918.63;;;17.04;47.15
67738;BME280;54534;43.612;1.572;2023-03-26T18:34:56;98923.81;;;17.05;47.05
67738;BME280;54534;43.612;1.572;2023-03-26T18:37:32;98934.44;;;17.05;47.04
67738;BME280;54534;43.612;1.572;2023-03-26T18:40:07;98945.06;;;17.05;47.05
67738;BME280;54534;43.612;1.572;2023-03-26T18:42:45;98953.88;;;17.06;47.06
67738;BME280;54534;43.612;1.572;2023-03-26T18:47:46;98965.44;;;17.05;47.29
67738;BME280;54534;43.612;1.572;2023-03-26T18:50:24;98972.56;;;17.04;46.91
67738;BME280;54534;43.612;1.572;2023-03-26T18:52:51;98990.34;;;17.04;47.16
67738;BME280;54534;43.612;1.572;2023-03-26T18:55:17;98976.09;;;17.05;47.07